sensor_id;sensor_type;location;lat;lon;timestamp;temperature;humidity
14749;DHT22;7466;53.574;9.976;2023-01-10T00:01:46;6.50;99.90
14749;DHT22;7466;53.574;9.976;2023-01-10T00:04:13;6.50;99.90
14749;DHT22;7466;53.574;9.976;2023-01-10T00:06:41;6.50;99.90
14749;DHT22;7466;53.574;9.976;2023-01-10T00:09:08;6.50;99.90
14749;DHT22;7466;53.574;9.976;2023-01-10T00:11:37;6.50;99.90
14749;DHT22;7466;53.574;9.976;2023-01-10T00:14:30;6.50;99.90
14749;DHT22;7466;53.574;9.976;2023-01-10T00:16:59;6.50;99.90
14749;DHT22;7466;53.574;9.976;2023-01-10T00:19:27;6.50;99.90
14749;DHT22;7466;53.574;9.976;2023-01-10T00:21:53;6.50;99.90
14749;DHT22;7466;53.574;9.976;2023-01-10T00:24:22;6.50;99.90
14749;DHT22;7466;53.574;9.976;2023-01-10T00:26:51;6.50;99.90
14749;DHT22;7466;53.574;9.976;2023-01-10T00:29:18;6.40;99.90
14749;DHT22;7466;53.574;9.976;2023-01-10T00:31:45;6.40;99.90
14749;DHT22;7466;53.574;9.976;2023-01-10T00:34:12;6.50;99.90
14749;DHT22;7466;53.574;9.976;2023-01-10T00:36:39;6.40;99.90
14749;DHT22;7466;53.574;9.976;2023-01-10T00:39:06;6.40;99.90
14749;DHT22;7466;53.574;9.976;2023-01-10T00:41:35;6.50;99.90
14749;DHT22;7466;53.574;9.976;2023-01-10T00:44:21;6.50;99.90
14749;DHT22;7466;53.574;9.976;2023-01-10T00:46:47;6.50;99.90
14749;DHT22;7466;53.574;9.976;2023-01-10T00:49:14;6.50;99.90
14749;DHT22;7466;53.574;9.976;2023-01-10T00:51:42;6.50;99.90
14749;DHT22;7466;53.574;9.976;2023-01-10T00:54:11;6.50;99.90
14749;DHT22;7466;53.574;9.976;2023-01-10T00:56:42;6.50;99.90
14749;DHT22;7466;53.574;9.976;2023-01-10T00:59:26;6.50;99.90
14749;DHT22;7466;53.574;9.976;2023-01-10T01:01:54;6.50;99.90
14749;DHT22;7466;53.574;9.976;2023-01-10T01:04:21;6.50;99.90
14749;DHT22;7466;53.574;9.976;2023-01-10T01:06:48;6.50;99.90
14749;DHT22;7466;53.574;9.976;2023-01-10T01:09:15;6.40;99.90
14749;DHT22;7466;53.574;9.976;2023-01-10T01:11:42;6.40;99.90
14749;DHT22;7466;53.574;9.976;2023-01-10T01:14:09;6.40;99.90
14749;DHT22;7466;53.574;9.976;2023-01-10T01:16:38;6.40;99.90
14749;DHT22;7466;53.574;9.976;2023-01-10T01:19:05;6.30;99.90
14749;DHT22;7466;53.574;9.976;2023-01-10T01:21:32;6.30;99.90
14749;DHT22;7466;53.574;9.976;2023-01-10T01:23:59;6.30;99.90
14749;DHT22;7466;53.574;9.976;2023-01-10T01:26:26;6.20;99.90
14749;DHT22;7466;53.574;9.976;2023-01-10T01:28:54;6.20;99.90
14749;DHT22;7466;53.574;9.976;2023-01-10T01:31:21;6.10;99.90
14749;DHT22;7466;53.574;9.976;2023-01-10T01:33:49;6.10;99.90
14749;DHT22;7466;53.574;9.976;2023-01-10T01:36:16;6.00;99.90
14749;DHT22;7466;53.574;9.976;2023-01-10T01:38:43;6.00;99.90
14749;DHT22;7466;53.574;9.976;2023-01-10T01:41:23;5.90;99.90
14749;DHT22;7466;53.574;9.976;2023-01-10T01:44:13;5.90;99.90
14749;DHT22;7466;53.574;9.976;2023-01-10T01:46:41;5.90;99.90
14749;DHT22;7466;53.574;9.976;2023-01-10T01:49:23;5.90;99.90
14749;DHT22;7466;53.574;9.976;2023-01-10T01:51:56;5.90;99.90
14749;DHT22;7466;53.574;9.976;2023-01-10T01:54:26;5.90;99.90
14749;DHT22;7466;53.574;9.976;2023-01-10T01:57:01;5.90;99.90
14749;DHT22;7466;53.574;9.976;2023-01-10T01:59:33;5.90;99.90
14749;DHT22;7466;53.574;9.976;2023-01-10T02:02:04;5.90;99.90
14749;DHT22;7466;53.574;9.976;2023-01-10T02:04:39;5.80;99.90
14749;DHT22;7466;53.574;9.976;2023-01-10T02:07:29;5.90;99.90
14749;DHT22;7466;53.574;9.976;2023-01-10T02:10:00;5.90;99.90
14749;DHT22;7466;53.574;9.976;2023-01-10T02:12:29;5.90;99.90
14749;DHT22;7466;53.574;9.976;2023-01-10T02:14:57;5.80;99.90
14749;DHT22;7466;53.574;9.976;2023-01-10T02:17:24;5.90;99.90
14749;DHT22;7466;53.574;9.976;2023-01-10T02:19:54;5.90;99.90
14749;DHT22;7466;53.574;9.976;2023-01-10T02:22:51;5.80;99.90
14749;DHT22;7466;53.574;9.976;2023-01-10T02:25:54;5.90;99.90
14749;DHT22;7466;53.574;9.976;2023-01-10T02:29:01;5.80;99.90
14749;DHT22;7466;53.574;9.976;2023-01-10T02:34:52;5.80;99.90
14749;DHT22;7466;53.574;9.976;2023-01-10T02:37:28;5.80;99.90
14749;DHT22;7466;53.574;9.976;2023-01-10T02:40:06;5.80;99.90
14749;DHT22;7466;53.574;9.976;2023-01-10T02:42:41;5.80;99.90
14749;DHT22;7466;53.574;9.976;2023-01-10T02:45:13;5.80;99.90
14749;DHT22;7466;53.574;9.976;2023-01-10T02:47:52;5.80;99.90
14749;DHT22;7466;53.574;9.976;2023-01-10T02:50:46;5.80;99.90
14749;DHT22;7466;53.574;9.976;2023-01-10T02:53:17;5.80;99.90
14749;DHT22;7466;53.574;9.976;2023-01-10T02:58:57;5.80;99.90
14749;DHT22;7466;53.574;9.976;2023-01-10T03:01:34;5.80;99.90
14749;DHT22;7466;53.574;9.976;2023-01-10T03:04:11;5.80;99.90
14749;DHT22;7466;53.574;9.976;2023-01-10T03:06:46;5.80;99.90
14749;DHT22;7466;53.574;9.976;2023-01-10T03:09:24;5.80;99.90
14749;DHT22;7466;53.574;9.976;2023-01-10T03:12:01;5.80;99.90
14749;DHT22;7466;53.574;9.976;2023-01-10T03:14:37;5.80;99.90
14749;DHT22;7466;53.574;9.976;2023-01-10T03:17:07;5.80;99.90
14749;DHT22;7466;53.574;9.976;2023-01-10T03:19:41;5.80;99.90
14749;DHT22;7466;53.574;9.976;2023-01-10T03:22:10;5.80;99.90
14749;DHT22;7466;53.574;9.976;2023-01-10T03:24:41;5.80;99.90
14749;DHT22;7466;53.574;9.976;2023-01-10T03:27:12;5.80;99.90
14749;DHT22;7466;53.574;9.976;2023-01-10T03:29:43;5.80;99.90
14749;DHT22;7466;53.574;9.976;2023-01-10T03:32:14;5.80;99.90
14749;DHT22;7466;53.574;9.976;2023-01-10T03:34:43;5.70;99.90
14749;DHT22;7466;53.574;9.976;2023-01-10T03:37:13;5.70;99.90
14749;DHT22;7466;53.574;9.976;2023-01-10T03:39:47;5.60;99.90
14749;DHT22;7466;53.574;9.976;2023-01-10T03:42:20;5.60;99.90
14749;DHT22;7466;53.574;9.976;2023-01-10T03:45:22;5.60;99.90
14749;DHT22;7466;53.574;9.976;2023-01-10T03:47:51;5.50;99.90
14749;DHT22;7466;53.574;9.976;2023-01-10T03:50:22;5.50;99.90
14749;DHT22;7466;53.574;9.976;2023-01-10T03:52:54;5.40;99.90
14749;DHT22;7466;53.574;9.976;2023-01-10T03:55:26;5.40;99.90
14749;DHT22;7466;53.574;9.976;2023-01-10T03:57:53;5.40;99.90
14749;DHT22;7466;53.574;9.976;2023-01-10T04:00:28;5.40;99.90
14749;DHT22;7466;53.574;9.976;2023-01-10T04:02:55;5.30;99.90
14749;DHT22;7466;53.574;9.976;2023-01-10T04:05:25;5.30;99.90
14749;DHT22;7466;53.574;9.976;2023-01-10T04:08:08;5.30;99.90
14749;DHT22;7466;53.574;9.976;2023-01-10T04:10:35;5.20;99.90
14749;DHT22;7466;53.574;9.976;2023-01-10T04:13:18;5.20;99.90
14749;DHT22;7466;53.574;9.976;2023-01-10T04:15:44;5.20;99.90
14749;DHT22;7466;53.574;9.976;2023-01-10T04:18:11;5.20;99.90
14749;DHT22;7466;53.574;9.976;2023-01-10T04:20:40;5.20;99.90
14749;DHT22;7466;53.574;9.976;2023-01-10T04:23:08;5.10;99.90
14749;DHT22;7466;53.574;9.976;2023-01-10T04:25:35;5.10;99.90
14749;DHT22;7466;53.574;9.976;2023-01-10T04:28:02;5.10;99.90
14749;DHT22;7466;53.574;9.976;2023-01-10T04:30:32;5.10;99.90
14749;DHT22;7466;53.574;9.976;2023-01-10T04:33:01;5.10;99.90
14749;DHT22;7466;53.574;9.976;2023-01-10T04:35:28;5.10;99.90
14749;DHT22;7466;53.574;9.976;2023-01-10T04:37:55;5.10;99.90
14749;DHT22;7466;53.574;9.976;2023-01-10T04:40:23;5.00;99.90
14749;DHT22;7466;53.574;9.976;2023-01-10T04:42:50;5.00;99.90
14749;DHT22;7466;53.574;9.976;2023-01-10T04:45:19;5.10;99.90
14749;DHT22;7466;53.574;9.976;2023-01-10T04:47:49;5.10;99.90
14749;DHT22;7466;53.574;9.976;2023-01-10T04:50:19;5.10;99.90
14749;DHT22;7466;53.574;9.976;2023-01-10T04:52:46;5.10;99.90
14749;DHT22;7466;53.574;9.976;2023-01-10T04:55:12;5.20;99.90
14749;DHT22;7466;53.574;9.976;2023-01-10T04:57:41;5.20;99.90
14749;DHT22;7466;53.574;9.976;2023-01-10T05:00:10;5.20;99.90
14749;DHT22;7466;53.574;9.976;2023-01-10T05:02:37;5.30;99.90
14749;DHT22;7466;53.574;9.976;2023-01-10T05:05:09;5.30;99.90
14749;DHT22;7466;53.574;9.976;2023-01-10T05:07:35;5.30;99.90
14749;DHT22;7466;53.574;9.976;2023-01-10T05:10:04;5.30;99.90
14749;DHT22;7466;53.574;9.976;2023-01-10T05:12:32;5.40;99.90
14749;DHT22;7466;53.574;9.976;2023-01-10T05:15:00;5.40;99.90
14749;DHT22;7466;53.574;9.976;2023-01-10T05:17:27;5.40;99.90
14749;DHT22;7466;53.574;9.976;2023-01-10T05:19:55;5.50;99.90
14749;DHT22;7466;53.574;9.976;2023-01-10T05:22:21;5.50;99.90
14749;DHT22;7466;53.574;9.976;2023-01-10T05:24:48;5.50;99.90
14749;DHT22;7466;53.574;9.976;2023-01-10T05:27:15;5.50;99.90
14749;DHT22;7466;53.574;9.976;2023-01-10T05:29:42;5.50;99.90
14749;DHT22;7466;53.574;9.976;2023-01-10T05:32:28;5.50;99.90
14749;DHT22;7466;53.574;9.976;2023-01-10T05:34:56;5.50;99.90
14749;DHT22;7466;53.574;9.976;2023-01-10T05:37:33;5.60;99.90
14749;DHT22;7466;53.574;9.976;2023-01-10T05:40:01;5.60;99.90
14749;DHT22;7466;53.574;9.976;2023-01-10T05:42:28;5.60;99.90
14749;DHT22;7466;53.574;9.976;2023-01-10T05:44:54;5.60;99.90
14749;DHT22;7466;53.574;9.976;2023-01-10T05:47:21;5.60;99.90
14749;DHT22;7466;53.574;9.976;2023-01-10T05:50:00;5.60;99.90
14749;DHT22;7466;53.574;9.976;2023-01-10T05:52:26;5.60;99.90
14749;DHT22;7466;53.574;9.976;2023-01-10T05:54:53;5.50;99.90
14749;DHT22;7466;53.574;9.976;2023-01-10T05:57:26;5.50;99.90
14749;DHT22;7466;53.574;9.976;2023-01-10T05:59:53;5.40;99.90
14749;DHT22;7466;53.574;9.976;2023-01-10T06:02:23;5.50;99.90
14749;DHT22;7466;53.574;9.976;2023-01-10T06:04:51;5.40;99.90
14749;DHT22;7466;53.574;9.976;2023-01-10T06:07:22;5.40;99.90
14749;DHT22;7466;53.574;9.976;2023-01-10T06:09:48;5.40;99.90
14749;DHT22;7466;53.574;9.976;2023-01-10T06:12:16;5.40;99.90
14749;DHT22;7466;53.574;9.976;2023-01-10T06:14:44;5.30;99.90
14749;DHT22;7466;53.574;9.976;2023-01-10T06:17:11;5.30;99.90
14749;DHT22;7466;53.574;9.976;2023-01-10T06:19:38;5.30;99.90
14749;DHT22;7466;53.574;9.976;2023-01-10T06:22:09;5.20;99.90
14749;DHT22;7466;53.574;9.976;2023-01-10T06:24:37;5.20;99.90
14749;DHT22;7466;53.574;9.976;2023-01-10T06:27:04;5.20;99.90
14749;DHT22;7466;53.574;9.976;2023-01-10T06:29:52;5.20;99.90
14749;DHT22;7466;53.574;9.976;2023-01-10T06:32:19;5.20;99.90
14749;DHT22;7466;53.574;9.976;2023-01-10T06:34:46;5.20;99.90
14749;DHT22;7466;53.574;9.976;2023-01-10T06:37:12;5.20;99.90
14749;DHT22;7466;53.574;9.976;2023-01-10T06:39:50;5.20;99.90
14749;DHT22;7466;53.574;9.976;2023-01-10T06:42:17;5.10;99.90
14749;DHT22;7466;53.574;9.976;2023-01-10T06:44:44;5.20;99.90
14749;DHT22;7466;53.574;9.976;2023-01-10T06:47:12;5.10;99.90
14749;DHT22;7466;53.574;9.976;2023-01-10T06:49:39;5.10;99.90
14749;DHT22;7466;53.574;9.976;2023-01-10T06:52:06;5.10;99.90
14749;DHT22;7466;53.574;9.976;2023-01-10T06:54:33;5.00;99.90
14749;DHT22;7466;53.574;9.976;2023-01-10T06:57:01;5.00;99.90
14749;DHT22;7466;53.574;9.976;2023-01-10T06:59:28;5.00;99.90
14749;DHT22;7466;53.574;9.976;2023-01-10T07:01:54;5.00;99.90
14749;DHT22;7466;53.574;9.976;2023-01-10T07:04:22;5.00;99.90
14749;DHT22;7466;53.574;9.976;2023-01-10T07:06:49;5.00;99.90
14749;DHT22;7466;53.574;9.976;2023-01-10T07:09:17;5.00;99.90
14749;DHT22;7466;53.574;9.976;2023-01-10T07:11:44;5.00;99.90
14749;DHT22;7466;53.574;9.976;2023-01-10T07:14:12;5.00;99.90
14749;DHT22;7466;53.574;9.976;2023-01-10T07:16:39;5.00;99.90
14749;DHT22;7466;53.574;9.976;2023-01-10T07:19:15;5.00;99.90
14749;DHT22;7466;53.574;9.976;2023-01-10T07:21:42;5.10;99.90
14749;DHT22;7466;53.574;9.976;2023-01-10T07:24:11;5.00;99.90
14749;DHT22;7466;53.574;9.976;2023-01-10T07:26:41;5.10;99.90
14749;DHT22;7466;53.574;9.976;2023-01-10T07:29:08;5.10;99.90
14749;DHT22;7466;53.574;9.976;2023-01-10T07:31:37;5.10;99.90
14749;DHT22;7466;53.574;9.976;2023-01-10T07:34:04;5.10;99.90
14749;DHT22;7466;53.574;9.976;2023-01-10T07:36:46;5.10;99.90
14749;DHT22;7466;53.574;9.976;2023-01-10T07:39:15;5.20;99.90
14749;DHT22;7466;53.574;9.976;2023-01-10T07:41:46;5.20;99.90
14749;DHT22;7466;53.574;9.976;2023-01-10T07:44:12;5.20;99.90
14749;DHT22;7466;53.574;9.976;2023-01-10T07:46:56;5.20;99.90
14749;DHT22;7466;53.574;9.976;2023-01-10T07:49:22;5.20;99.90
14749;DHT22;7466;53.574;9.976;2023-01-10T07:51:49;5.30;99.90
14749;DHT22;7466;53.574;9.976;2023-01-10T07:54:16;5.30;99.90
14749;DHT22;7466;53.574;9.976;2023-01-10T07:56:45;5.30;99.90
14749;DHT22;7466;53.574;9.976;2023-01-10T07:59:12;5.40;99.90
14749;DHT22;7466;53.574;9.976;2023-01-10T08:01:42;5.40;99.90
14749;DHT22;7466;53.574;9.976;2023-01-10T08:04:10;5.50;99.90
14749;DHT22;7466;53.574;9.976;2023-01-10T08:06:37;5.50;99.90
14749;DHT22;7466;53.574;9.976;2023-01-10T08:09:04;5.50;99.90
14749;DHT22;7466;53.574;9.976;2023-01-10T08:11:31;5.50;99.90
14749;DHT22;7466;53.574;9.976;2023-01-10T08:13:58;5.60;99.90
14749;DHT22;7466;53.574;9.976;2023-01-10T08:16:24;5.60;99.90
14749;DHT22;7466;53.574;9.976;2023-01-10T08:18:51;5.60;99.90
14749;DHT22;7466;53.574;9.976;2023-01-10T08:21:19;5.70;99.90
14749;DHT22;7466;53.574;9.976;2023-01-10T08:23:47;5.70;99.90
14749;DHT22;7466;53.574;9.976;2023-01-10T08:26:13;5.70;99.90
14749;DHT22;7466;53.574;9.976;2023-01-10T08:28:45;5.70;99.90
14749;DHT22;7466;53.574;9.976;2023-01-10T08:31:18;5.80;99.90
14749;DHT22;7466;53.574;9.976;2023-01-10T08:33:54;5.80;99.90
14749;DHT22;7466;53.574;9.976;2023-01-10T08:36:32;5.80;99.90
14749;DHT22;7466;53.574;9.976;2023-01-10T08:38:59;5.80;99.90
14749;DHT22;7466;53.574;9.976;2023-01-10T08:41:30;5.80;99.90
14749;DHT22;7466;53.574;9.976;2023-01-10T08:43:57;5.90;99.90
14749;DHT22;7466;53.574;9.976;2023-01-10T08:46:38;5.90;99.90
14749;DHT22;7466;53.574;9.976;2023-01-10T08:49:14;5.90;99.90
14749;DHT22;7466;53.574;9.976;2023-01-10T08:51:42;5.90;99.90
14749;DHT22;7466;53.574;9.976;2023-01-10T08:54:24;6.00;99.90
14749;DHT22;7466;53.574;9.976;2023-01-10T08:56:50;6.00;99.90
14749;DHT22;7466;53.574;9.976;2023-01-10T08:59:19;6.00;99.90
14749;DHT22;7466;53.574;9.976;2023-01-10T09:01:46;6.00;99.90
14749;DHT22;7466;53.574;9.976;2023-01-10T09:04:13;6.00;99.90
14749;DHT22;7466;53.574;9.976;2023-01-10T09:06:41;6.00;99.90
14749;DHT22;7466;53.574;9.976;2023-01-10T09:09:08;6.00;99.90
14749;DHT22;7466;53.574;9.976;2023-01-10T09:11:35;6.00;99.90
14749;DHT22;7466;53.574;9.976;2023-01-10T09:14:02;6.00;99.90
14749;DHT22;7466;53.574;9.976;2023-01-10T09:16:31;6.00;99.90
14749;DHT22;7466;53.574;9.976;2023-01-10T09:18:58;6.10;99.90
14749;DHT22;7466;53.574;9.976;2023-01-10T09:21:26;6.10;99.90
14749;DHT22;7466;53.574;9.976;2023-01-10T09:23:54;6.10;99.90
14749;DHT22;7466;53.574;9.976;2023-01-10T09:26:21;6.10;99.90
14749;DHT22;7466;53.574;9.976;2023-01-10T09:28:48;6.20;99.90
14749;DHT22;7466;53.574;9.976;2023-01-10T09:31:15;6.20;99.90
14749;DHT22;7466;53.574;9.976;2023-01-10T09:33:42;6.20;99.90
14749;DHT22;7466;53.574;9.976;2023-01-10T09:36:08;6.10;99.90
14749;DHT22;7466;53.574;9.976;2023-01-10T09:38:35;6.10;99.90
14749;DHT22;7466;53.574;9.976;2023-01-10T09:41:16;6.20;99.90
14749;DHT22;7466;53.574;9.976;2023-01-10T09:43:57;6.20;99.90
14749;DHT22;7466;53.574;9.976;2023-01-10T09:46:30;6.20;99.90
14749;DHT22;7466;53.574;9.976;2023-01-10T09:49:06;6.30;99.90
14749;DHT22;7466;53.574;9.976;2023-01-10T09:51:40;6.30;99.90
14749;DHT22;7466;53.574;9.976;2023-01-10T09:54:12;6.30;99.90
14749;DHT22;7466;53.574;9.976;2023-01-10T09:56:40;6.30;99.90
14749;DHT22;7466;53.574;9.976;2023-01-10T09:59:14;6.30;99.90
14749;DHT22;7466;53.574;9.976;2023-01-10T10:01:42;6.30;99.90
14749;DHT22;7466;53.574;9.976;2023-01-10T10:04:19;6.30;99.90
14749;DHT22;7466;53.574;9.976;2023-01-10T10:06:48;6.30;99.90
14749;DHT22;7466;53.574;9.976;2023-01-10T10:09:17;6.40;99.90
14749;DHT22;7466;53.574;9.976;2023-01-10T10:12:08;6.40;99.90
14749;DHT22;7466;53.574;9.976;2023-01-10T10:14:46;6.40;99.90
14749;DHT22;7466;53.574;9.976;2023-01-10T10:20:25;6.40;99.90
14749;DHT22;7466;53.574;9.976;2023-01-10T10:23:04;6.40;99.90
14749;DHT22;7466;53.574;9.976;2023-01-10T10:25:44;6.40;99.90
14749;DHT22;7466;53.574;9.976;2023-01-10T10:31:16;6.40;99.90
14749;DHT22;7466;53.574;9.976;2023-01-10T10:34:00;6.40;99.90
14749;DHT22;7466;53.574;9.976;2023-01-10T10:36:36;6.40;99.90
14749;DHT22;7466;53.574;9.976;2023-01-10T10:39:04;6.40;99.90
14749;DHT22;7466;53.574;9.976;2023-01-10T10:41:34;6.40;99.90
14749;DHT22;7466;53.574;9.976;2023-01-10T10:44:15;6.40;99.90
14749;DHT22;7466;53.574;9.976;2023-01-10T10:46:44;6.40;99.90
14749;DHT22;7466;53.574;9.976;2023-01-10T10:49:16;6.40;99.90
14749;DHT22;7466;53.574;9.976;2023-01-10T10:51:46;6.40;99.90
14749;DHT22;7466;53.574;9.976;2023-01-10T10:54:15;6.40;99.90
14749;DHT22;7466;53.574;9.976;2023-01-10T10:56:43;6.40;99.90
14749;DHT22;7466;53.574;9.976;2023-01-10T10:59:16;6.40;99.90
14749;DHT22;7466;53.574;9.976;2023-01-10T11:01:44;6.40;99.90
14749;DHT22;7466;53.574;9.976;2023-01-10T11:04:15;6.40;99.90
14749;DHT22;7466;53.574;9.976;2023-01-10T11:06:43;6.40;99.90
14749;DHT22;7466;53.574;9.976;2023-01-10T11:09:14;6.50;99.90
14749;DHT22;7466;53.574;9.976;2023-01-10T11:11:44;6.50;99.90
14749;DHT22;7466;53.574;9.976;2023-01-10T11:14:39;6.50;99.90
14749;DHT22;7466;53.574;9.976;2023-01-10T11:17:21;6.50;99.90
14749;DHT22;7466;53.574;9.976;2023-01-10T11:19:56;6.50;99.90
14749;DHT22;7466;53.574;9.976;2023-01-10T11:22:24;6.50;99.90
14749;DHT22;7466;53.574;9.976;2023-01-10T11:24:53;6.60;99.90
14749;DHT22;7466;53.574;9.976;2023-01-10T11:27:25;6.50;99.90
14749;DHT22;7466;53.574;9.976;2023-01-10T11:29:58;6.60;99.90
14749;DHT22;7466;53.574;9.976;2023-01-10T11:32:31;6.60;99.90
14749;DHT22;7466;53.574;9.976;2023-01-10T11:35:02;6.60;99.90
14749;DHT22;7466;53.574;9.976;2023-01-10T11:37:32;6.60;99.90
14749;DHT22;7466;53.574;9.976;2023-01-10T11:40:17;6.60;99.90
14749;DHT22;7466;53.574;9.976;2023-01-10T11:42:45;6.60;99.90
14749;DHT22;7466;53.574;9.976;2023-01-10T11:45:26;6.70;99.90
14749;DHT22;7466;53.574;9.976;2023-01-10T11:47:55;6.70;99.90
14749;DHT22;7466;53.574;9.976;2023-01-10T11:50:26;6.70;99.90
14749;DHT22;7466;53.574;9.976;2023-01-10T11:52:54;6.70;99.90
14749;DHT22;7466;53.574;9.976;2023-01-10T11:55:23;6.70;99.90
14749;DHT22;7466;53.574;9.976;2023-01-10T11:58:02;6.80;99.90
14749;DHT22;7466;53.574;9.976;2023-01-10T12:00:44;6.80;99.90
14749;DHT22;7466;53.574;9.976;2023-01-10T12:03:16;6.80;99.90
14749;DHT22;7466;53.574;9.976;2023-01-10T12:05:53;6.80;99.90
14749;DHT22;7466;53.574;9.976;2023-01-10T12:08:26;6.80;99.90
14749;DHT22;7466;53.574;9.976;2023-01-10T12:11:00;6.80;99.90
14749;DHT22;7466;53.574;9.976;2023-01-10T12:13:28;6.90;99.90
14749;DHT22;7466;53.574;9.976;2023-01-10T12:16:17;6.90;99.90
14749;DHT22;7466;53.574;9.976;2023-01-10T12:18:51;6.90;99.90
14749;DHT22;7466;53.574;9.976;2023-01-10T12:21:24;6.90;99.90
14749;DHT22;7466;53.574;9.976;2023-01-10T12:23:53;6.90;99.90
14749;DHT22;7466;53.574;9.976;2023-01-10T12:26:24;6.90;99.90
14749;DHT22;7466;53.574;9.976;2023-01-10T12:28:54;7.00;99.90
14749;DHT22;7466;53.574;9.976;2023-01-10T12:31:25;7.10;99.90
14749;DHT22;7466;53.574;9.976;2023-01-10T12:33:56;7.10;99.90
14749;DHT22;7466;53.574;9.976;2023-01-10T12:36:42;7.10;99.90
14749;DHT22;7466;53.574;9.976;2023-01-10T12:39:13;7.10;99.90
14749;DHT22;7466;53.574;9.976;2023-01-10T12:42:07;7.10;99.90
14749;DHT22;7466;53.574;9.976;2023-01-10T12:44:59;7.20;99.90
14749;DHT22;7466;53.574;9.976;2023-01-10T12:47:33;7.20;99.90
14749;DHT22;7466;53.574;9.976;2023-01-10T12:50:04;7.20;99.90
14749;DHT22;7466;53.574;9.976;2023-01-10T12:52:38;7.20;99.90
14749;DHT22;7466;53.574;9.976;2023-01-10T12:55:12;7.20;99.90
14749;DHT22;7466;53.574;9.976;2023-01-10T12:57:42;7.20;99.90
14749;DHT22;7466;53.574;9.976;2023-01-10T13:00:20;7.30;99.90
14749;DHT22;7466;53.574;9.976;2023-01-10T13:02:53;7.30;99.90
14749;DHT22;7466;53.574;9.976;2023-01-10T13:05:23;7.30;99.90
14749;DHT22;7466;53.574;9.976;2023-01-10T13:07:53;7.30;99.90
14749;DHT22;7466;53.574;9.976;2023-01-10T13:10:22;7.30;99.90
14749;DHT22;7466;53.574;9.976;2023-01-10T13:12:54;7.30;99.90
14749;DHT22;7466;53.574;9.976;2023-01-10T13:15:29;7.20;99.90
14749;DHT22;7466;53.574;9.976;2023-01-10T13:18:03;7.30;99.90
14749;DHT22;7466;53.574;9.976;2023-01-10T13:20:39;7.30;99.90
14749;DHT22;7466;53.574;9.976;2023-01-10T13:23:28;7.30;99.90
14749;DHT22;7466;53.574;9.976;2023-01-10T13:25:58;7.40;99.90
14749;DHT22;7466;53.574;9.976;2023-01-10T13:28:27;7.40;99.90
14749;DHT22;7466;53.574;9.976;2023-01-10T13:30:56;7.50;99.90
14749;DHT22;7466;53.574;9.976;2023-01-10T13:33:31;7.50;99.90
14749;DHT22;7466;53.574;9.976;2023-01-10T13:36:07;7.50;99.90
14749;DHT22;7466;53.574;9.976;2023-01-10T13:38:43;7.60;99.90
14749;DHT22;7466;53.574;9.976;2023-01-10T13:41:12;7.60;99.90
14749;DHT22;7466;53.574;9.976;2023-01-10T13:44:03;7.50;99.90
14749;DHT22;7466;53.574;9.976;2023-01-10T13:46:44;7.50;99.90
14749;DHT22;7466;53.574;9.976;2023-01-10T13:49:41;7.40;99.90
14749;DHT22;7466;53.574;9.976;2023-01-10T13:52:35;7.40;99.90
14749;DHT22;7466;53.574;9.976;2023-01-10T13:55:23;7.40;99.90
14749;DHT22;7466;53.574;9.976;2023-01-10T13:57:55;7.40;99.90
14749;DHT22;7466;53.574;9.976;2023-01-10T14:00:27;7.40;99.90
14749;DHT22;7466;53.574;9.976;2023-01-10T14:03:39;7.40;99.90
14749;DHT22;7466;53.574;9.976;2023-01-10T14:06:13;7.30;99.90
14749;DHT22;7466;53.574;9.976;2023-01-10T14:08:48;7.30;99.90
14749;DHT22;7466;53.574;9.976;2023-01-10T14:11:15;7.30;99.90
14749;DHT22;7466;53.574;9.976;2023-01-10T14:13:46;7.30;99.90
14749;DHT22;7466;53.574;9.976;2023-01-10T14:16:36;7.30;99.90
14749;DHT22;7466;53.574;9.976;2023-01-10T14:19:06;7.30;99.90
14749;DHT22;7466;53.574;9.976;2023-01-10T14:21:51;7.30;99.90
14749;DHT22;7466;53.574;9.976;2023-01-10T14:24:23;7.30;99.90
14749;DHT22;7466;53.574;9.976;2023-01-10T14:26:53;7.30;99.90
14749;DHT22;7466;53.574;9.976;2023-01-10T14:29:21;7.30;99.90
14749;DHT22;7466;53.574;9.976;2023-01-10T14:31:49;7.30;99.90
14749;DHT22;7466;53.574;9.976;2023-01-10T14:34:21;7.30;99.90
14749;DHT22;7466;53.574;9.976;2023-01-10T14:36:54;7.20;99.90
14749;DHT22;7466;53.574;9.976;2023-01-10T14:39:24;7.20;99.90
14749;DHT22;7466;53.574;9.976;2023-01-10T14:41:57;7.20;99.90
14749;DHT22;7466;53.574;9.976;2023-01-10T14:44:28;7.20;99.90
14749;DHT22;7466;53.574;9.976;2023-01-10T14:46:58;7.20;99.90
14749;DHT22;7466;53.574;9.976;2023-01-10T14:49:28;7.10;99.90
14749;DHT22;7466;53.574;9.976;2023-01-10T14:52:12;7.10;99.90
14749;DHT22;7466;53.574;9.976;2023-01-10T14:54:46;7.10;99.90
14749;DHT22;7466;53.574;9.976;2023-01-10T14:57:17;7.10;99.90
14749;DHT22;7466;53.574;9.976;2023-01-10T14:59:45;7.10;99.90
14749;DHT22;7466;53.574;9.976;2023-01-10T15:02:18;7.10;99.90
14749;DHT22;7466;53.574;9.976;2023-01-10T15:04:52;7.10;99.90
14749;DHT22;7466;53.574;9.976;2023-01-10T15:07:21;7.10;99.90
14749;DHT22;7466;53.574;9.976;2023-01-10T15:09:49;7.10;99.90
14749;DHT22;7466;53.574;9.976;2023-01-10T15:12:17;7.00;99.90
14749;DHT22;7466;53.574;9.976;2023-01-10T15:14:46;7.00;99.90
14749;DHT22;7466;53.574;9.976;2023-01-10T15:17:17;7.00;99.90
14749;DHT22;7466;53.574;9.976;2023-01-10T15:19:47;7.00;99.90
14749;DHT22;7466;53.574;9.976;2023-01-10T15:22:17;7.00;99.90
14749;DHT22;7466;53.574;9.976;2023-01-10T15:24:56;7.00;99.90
14749;DHT22;7466;53.574;9.976;2023-01-10T15:27:24;7.00;99.90
14749;DHT22;7466;53.574;9.976;2023-01-10T15:29:51;7.00;99.90
14749;DHT22;7466;53.574;9.976;2023-01-10T15:32:22;7.00;99.90
14749;DHT22;7466;53.574;9.976;2023-01-10T15:34:50;7.00;99.90
14749;DHT22;7466;53.574;9.976;2023-01-10T15:37:22;7.00;99.90
14749;DHT22;7466;53.574;9.976;2023-01-10T15:39:52;7.00;99.90
14749;DHT22;7466;53.574;9.976;2023-01-10T15:42:21;7.00;99.90
14749;DHT22;7466;53.574;9.976;2023-01-10T15:44:49;6.90;99.90
14749;DHT22;7466;53.574;9.976;2023-01-10T15:47:35;6.90;99.90
14749;DHT22;7466;53.574;9.976;2023-01-10T15:50:19;6.90;99.90
14749;DHT22;7466;53.574;9.976;2023-01-10T15:52:47;6.80;99.90
14749;DHT22;7466;53.574;9.976;2023-01-10T15:55:49;6.80;99.90
14749;DHT22;7466;53.574;9.976;2023-01-10T15:58:22;6.90;99.90
14749;DHT22;7466;53.574;9.976;2023-01-10T16:00:52;6.90;99.90
14749;DHT22;7466;53.574;9.976;2023-01-10T16:03:25;6.80;99.90
14749;DHT22;7466;53.574;9.976;2023-01-10T16:05:55;6.80;99.90
14749;DHT22;7466;53.574;9.976;2023-01-10T16:08:25;6.80;99.90
14749;DHT22;7466;53.574;9.976;2023-01-10T16:10:56;6.80;99.90
14749;DHT22;7466;53.574;9.976;2023-01-10T16:13:23;6.80;99.90
14749;DHT22;7466;53.574;9.976;2023-01-10T16:15:52;6.80;99.90
14749;DHT22;7466;53.574;9.976;2023-01-10T16:18:20;6.80;99.90
14749;DHT22;7466;53.574;9.976;2023-01-10T16:20:49;6.70;99.90
14749;DHT22;7466;53.574;9.976;2023-01-10T16:23:27;6.70;99.90
14749;DHT22;7466;53.574;9.976;2023-01-10T16:25:59;6.70;99.90
14749;DHT22;7466;53.574;9.976;2023-01-10T16:28:27;6.70;99.90
14749;DHT22;7466;53.574;9.976;2023-01-10T16:30:57;6.70;99.90
14749;DHT22;7466;53.574;9.976;2023-01-10T16:33:25;6.70;99.90
14749;DHT22;7466;53.574;9.976;2023-01-10T16:35:54;6.60;99.90
14749;DHT22;7466;53.574;9.976;2023-01-10T16:38:21;6.60;99.90
14749;DHT22;7466;53.574;9.976;2023-01-10T16:40:50;6.60;99.90
14749;DHT22;7466;53.574;9.976;2023-01-10T16:43:19;6.60;99.90
14749;DHT22;7466;53.574;9.976;2023-01-10T16:45:47;6.60;99.90